createdAt,value
2023-12-11T00:00:07.086Z,83.76
2023-12-11T00:00:41.780Z,83.50
2023-12-11T00:01:38.408Z,83.04
2023-12-11T00:02:12.409Z,83.49
2023-12-11T00:03:00.422Z,83.60
2023-12-11T00:03:34.140Z,83.43
2023-12-11T00:04:10.291Z,83.41
2023-12-11T00:04:44.155Z,83.66
2023-12-11T00:05:17.964Z,83.69
2023-12-11T00:05:51.768Z,83.76
2023-12-11T00:06:39.555Z,83.81
2023-12-11T00:07:13.081Z,83.69
2023-12-11T00:07:47.033Z,83.90
2023-12-11T00:08:20.892Z,84.07
2023-12-11T00:08:58.712Z,84.28
2023-12-11T00:09:32.691Z,84.39
2023-12-11T00:10:21.121Z,84.10
2023-12-11T00:10:54.818Z,82.61
2023-12-11T00:11:28.649Z,82.24
2023-12-11T00:12:03.577Z,82.37
2023-12-11T00:12:38.194Z,82.34
2023-12-11T00:13:12.377Z,82.60
2023-12-11T00:14:01.227Z,81.94
2023-12-11T00:14:34.941Z,82.41
2023-12-11T00:15:12.036Z,82.71
2023-12-11T00:15:46.182Z,81.95
2023-12-11T00:16:20.364Z,82.57
2023-12-11T00:16:54.036Z,83.01
2023-12-11T00:17:42.691Z,83.05
2023-12-11T00:18:16.669Z,82.56
2023-12-11T00:18:50.642Z,82.78
2023-12-11T00:19:26.929Z,82.58
2023-12-11T00:20:01.489Z,82.10
2023-12-11T00:20:36.218Z,81.83
2023-12-11T00:21:25.169Z,80.48
2023-12-11T00:21:59.318Z,80.17
2023-12-11T00:22:33.275Z,79.90
2023-12-11T00:23:08.073Z,80.00
2023-12-11T00:23:41.853Z,79.94
2023-12-11T00:24:15.645Z,79.21
2023-12-11T00:25:04.092Z,79.00
2023-12-11T00:25:38.813Z,79.49
2023-12-11T00:26:12.558Z,79.95
2023-12-11T00:26:46.270Z,80.46
2023-12-11T00:27:19.833Z,80.89
2023-12-11T00:27:54.868Z,79.88
2023-12-11T00:28:45.029Z,78.80
2023-12-11T00:29:18.889Z,78.88
2023-12-11T00:29:53.019Z,78.98
2023-12-11T00:30:28.007Z,79.23
2023-12-11T00:31:03.128Z,79.00
2023-12-11T00:31:37.419Z,79.43
2023-12-11T00:32:24.073Z,79.75
2023-12-11T00:32:57.923Z,79.80
2023-12-11T00:33:31.624Z,80.43
2023-12-11T00:34:05.431Z,81.26
2023-12-11T00:34:40.102Z,81.77
2023-12-11T00:35:16.888Z,82.10
2023-12-11T00:36:02.304Z,82.10
2023-12-11T00:36:36.416Z,82.13
2023-12-11T00:37:10.508Z,82.36
2023-12-11T00:37:44.262Z,82.71
2023-12-11T00:38:17.918Z,82.83
2023-12-11T00:38:51.523Z,83.02
2023-12-11T00:39:40.128Z,83.50
2023-12-11T00:40:16.787Z,83.96
2023-12-11T00:40:51.986Z,83.98
2023-12-11T00:41:25.726Z,83.86
2023-12-11T00:42:00.022Z,84.04
2023-12-11T00:42:34.370Z,84.15
2023-12-11T00:43:21.396Z,84.05
2023-12-11T00:43:55.905Z,84.11
2023-12-11T00:44:31.674Z,84.35
2023-12-11T00:45:05.761Z,84.56
2023-12-11T00:45:39.929Z,84.93
2023-12-11T00:46:20.644Z,85.07
2023-12-11T00:47:06.328Z,85.46
2023-12-11T00:47:40.099Z,85.79
2023-12-11T00:48:14.888Z,85.91
2023-12-11T00:48:49.015Z,86.19
2023-12-11T00:49:23.843Z,86.70
2023-12-11T00:49:57.846Z,87.11
2023-12-11T00:50:45.227Z,87.58
2023-12-11T00:51:19.642Z,87.84
2023-12-11T00:52:01.342Z,87.98
2023-12-11T00:52:35.362Z,88.16
2023-12-11T00:53:09.654Z,88.71
2023-12-11T00:53:44.307Z,89.04
2023-12-11T00:54:30.794Z,89.45
2023-12-11T00:55:04.375Z,89.69
2023-12-11T00:55:37.920Z,89.61
2023-12-11T00:56:13.813Z,90.11
2023-12-11T00:56:47.634Z,90.23
2023-12-11T00:57:21.263Z,90.47
2023-12-11T00:58:11.989Z,90.75
2023-12-11T00:58:45.870Z,91.00
2023-12-11T00:59:20.583Z,91.07
2023-12-11T00:59:54.868Z,91.39
2023-12-11T01:00:29.107Z,91.38
2023-12-11T01:01:03.523Z,91.92
2023-12-11T01:01:54.569Z,91.97
2023-12-11T01:02:28.612Z,92.03
2023-12-11T01:03:02.525Z,92.21
2023-12-11T01:03:37.468Z,92.57
2023-12-11T01:04:14.344Z,92.65
2023-12-11T01:04:48.394Z,92.70
2023-12-11T01:05:33.406Z,92.71
2023-12-11T01:06:07.484Z,92.54
2023-12-11T01:06:41.327Z,92.65
2023-12-11T01:07:15.098Z,92.53
2023-12-11T01:07:48.806Z,92.88
2023-12-11T01:08:22.762Z,92.86
2023-12-11T01:09:11.183Z,93.01
2023-12-11T01:09:44.939Z,93.29
2023-12-11T01:10:19.881Z,93.42
2023-12-11T01:10:53.760Z,93.57
2023-12-11T01:11:27.369Z,94.03
2023-12-11T01:12:01.219Z,93.91
2023-12-11T01:12:52.701Z,94.23
2023-12-11T01:13:27.389Z,94.68
2023-12-11T01:14:01.898Z,94.43
2023-12-11T01:14:39.094Z,94.30
2023-12-11T01:15:13.029Z,94.51
2023-12-11T01:15:46.852Z,94.53
2023-12-11T01:16:35.410Z,94.74
2023-12-11T01:17:36.665Z,94.89
2023-12-11T01:18:03.536Z,95.15
2023-12-11T01:18:37.564Z,95.37
2023-12-11T01:19:11.359Z,95.32
2023-12-11T01:19:45.349Z,95.34
2023-12-11T01:20:36.834Z,95.40
2023-12-11T01:21:10.473Z,95.41
2023-12-11T01:21:46.547Z,95.79
2023-12-11T01:22:20.727Z,95.92
2023-12-11T01:22:55.088Z,95.70
2023-12-11T01:23:28.870Z,95.32
2023-12-11T01:24:18.253Z,95.13
2023-12-11T01:24:52.222Z,95.70
2023-12-11T01:25:26.561Z,95.78
2023-12-11T01:26:00.908Z,95.94
2023-12-11T01:26:34.832Z,95.96
2023-12-11T01:27:08.399Z,95.94
2023-12-11T01:28:01.585Z,95.44
2023-12-11T01:28:35.576Z,95.71
2023-12-11T01:29:11.474Z,95.88
2023-12-11T01:29:45.017Z,95.69
2023-12-11T01:30:27.246Z,96.55
2023-12-11T01:31:40.426Z,98.12
2023-12-11T01:32:16.846Z,98.02
2023-12-11T01:32:50.815Z,98.18
2023-12-11T01:33:25.159Z,98.00
2023-12-11T01:33:59.271Z,98.40
2023-12-11T01:34:36.004Z,98.40
2023-12-11T01:35:24.467Z,98.51
2023-12-11T01:35:58.446Z,98.88
2023-12-11T01:36:32.269Z,99.02
2023-12-11T01:37:09.165Z,99.13
2023-12-11T01:37:46.114Z,99.16
2023-12-11T01:38:19.772Z,99.63
2023-12-11T01:39:05.998Z,99.92
2023-12-11T01:39:39.844Z,99.94
2023-12-11T01:40:14.085Z,99.93
2023-12-11T01:40:49.453Z,99.79
2023-12-11T01:41:23.249Z,99.92
2023-12-11T01:41:59.073Z,99.61
2023-12-11T01:42:52.496Z,99.43
2023-12-11T01:43:31.920Z,99.37
2023-12-11T01:44:05.817Z,99.25
2023-12-11T01:44:39.843Z,98.97
2023-12-11T01:45:13.779Z,98.42
2023-12-11T01:45:52.367Z,98.44
2023-12-11T01:46:35.891Z,98.18
2023-12-11T01:47:09.714Z,98.48
2023-12-11T01:47:43.617Z,98.59
2023-12-11T01:48:17.771Z,98.56
2023-12-11T01:48:53.208Z,98.58
2023-12-11T01:49:27.692Z,98.48
2023-12-11T01:50:17.498Z,98.07
2023-12-11T01:50:51.305Z,98.09
2023-12-11T01:51:26.609Z,98.74
2023-12-11T01:52:00.962Z,98.92
2023-12-11T01:52:35.430Z,99.29
2023-12-11T01:53:09.586Z,99.24
2023-12-11T01:53:59.098Z,99.08
2023-12-11T01:54:36.743Z,98.91
2023-12-11T01:55:10.972Z,98.96
2023-12-11T01:55:44.837Z,98.94
2023-12-11T01:56:19.553Z,98.83
2023-12-11T01:56:53.402Z,98.69
2023-12-11T01:57:40.194Z,98.81
2023-12-11T01:58:14.276Z,98.80
2023-12-11T01:58:48.150Z,98.69
2023-12-11T01:59:21.977Z,98.37
2023-12-11T01:59:55.776Z,98.75
2023-12-11T02:00:29.594Z,98.98
2023-12-11T02:01:26.597Z,99.08
2023-12-11T02:02:01.458Z,99.20
2023-12-11T02:02:36.889Z,99.35
2023-12-11T02:03:11.214Z,99.53
2023-12-11T02:03:45.761Z,99.58
2023-12-11T02:04:19.542Z,99.98
2023-12-11T02:05:02.736Z,99.95
2023-12-11T02:05:36.480Z,100.00
2023-12-11T02:06:10.360Z,100.00
2023-12-11T02:06:44.319Z,100.00
2023-12-11T02:07:18.698Z,100.00
2023-12-11T02:07:53.661Z,100.00
2023-12-11T02:08:44.212Z,100.00
2023-12-11T02:09:17.984Z,100.00
2023-12-11T02:09:51.760Z,100.00
2023-12-11T02:10:25.233Z,100.00
2023-12-11T02:10:59.798Z,100.00
2023-12-11T02:11:33.789Z,100.00
2023-12-11T02:12:25.529Z,100.00
2023-12-11T02:12:59.568Z,100.00
2023-12-11T02:13:35.261Z,100.00
2023-12-11T02:14:10.155Z,100.00
2023-12-11T02:14:44.024Z,100.00
2023-12-11T02:15:36.244Z,100.00
2023-12-11T02:16:39.798Z,100.00
2023-12-11T02:17:14.938Z,100.00
2023-12-11T02:17:49.164Z,100.00
2023-12-11T02:18:25.841Z,100.00
2023-12-11T02:19:00.700Z,100.00
2023-12-11T02:19:59.172Z,100.00
2023-12-11T02:20:33.410Z,100.00
2023-12-11T02:21:07.734Z,100.00
2023-12-11T02:21:41.542Z,100.00
2023-12-11T02:22:16.329Z,100.00
2023-12-11T02:22:50.422Z,100.00
2023-12-11T02:23:50.253Z,100.00
2023-12-11T02:24:24.764Z,100.00
2023-12-11T02:25:01.925Z,100.00
2023-12-11T02:25:36.955Z,100.00
2023-12-11T02:26:14.733Z,100.00
2023-12-11T02:27:21.133Z,100.00
2023-12-11T02:27:55.532Z,100.00
2023-12-11T02:28:29.804Z,100.00
2023-12-11T02:29:03.463Z,100.00
2023-12-11T02:29:36.811Z,100.00
2023-12-11T02:30:10.484Z,100.00
2023-12-11T02:30:59.994Z,100.00
2023-12-11T02:31:33.515Z,100.00
2023-12-11T02:32:07.321Z,100.00
2023-12-11T02:32:41.153Z,100.00
2023-12-11T02:33:15.032Z,100.00
2023-12-11T02:33:53.589Z,100.00
2023-12-11T02:34:37.694Z,100.00
2023-12-11T02:35:11.212Z,100.00
2023-12-11T02:35:48.067Z,100.00
2023-12-11T02:36:22.506Z,100.00
2023-12-11T02:36:58.693Z,100.00
2023-12-11T02:37:32.713Z,100.00
2023-12-11T02:38:20.547Z,100.00
2023-12-11T02:38:54.649Z,100.00
2023-12-11T02:39:29.341Z,100.00
2023-12-11T02:40:04.916Z,100.00
2023-12-11T02:40:42.117Z,100.00
2023-12-11T02:41:18.338Z,100.00
2023-12-11T02:42:02.339Z,100.00
2023-12-11T02:42:36.072Z,100.00
2023-12-11T02:43:10.407Z,100.00
2023-12-11T02:43:44.380Z,100.00
2023-12-11T02:44:18.284Z,100.00
2023-12-11T02:44:52.104Z,100.00
2023-12-11T02:45:44.664Z,100.00
2023-12-11T02:46:18.674Z,100.00
2023-12-11T02:46:52.524Z,100.00
2023-12-11T02:47:26.533Z,100.00
2023-12-11T02:48:05.677Z,100.00
2023-12-11T02:48:40.340Z,100.00
2023-12-11T02:49:27.711Z,100.00
2023-12-11T02:50:01.290Z,100.00
2023-12-11T02:50:34.826Z,100.00
2023-12-11T02:51:08.648Z,100.00
2023-12-11T02:51:42.452Z,100.00
2023-12-11T02:52:16.387Z,100.00
2023-12-11T02:53:05.258Z,100.00
2023-12-11T02:53:38.919Z,100.00
2023-12-11T02:54:15.290Z,100.00
2023-12-11T02:54:50.388Z,100.00
2023-12-11T02:55:24.370Z,100.00
2023-12-11T02:55:58.288Z,100.00
2023-12-11T02:56:42.085Z,100.00
2023-12-11T02:57:15.586Z,100.00
2023-12-11T02:57:49.297Z,100.00
2023-12-11T02:58:23.178Z,100.00
2023-12-11T02:58:57.106Z,100.00
2023-12-11T02:59:31.123Z,100.00
2023-12-11T03:02:41.784Z,100.00
2023-12-11T03:04:41.269Z,100.00
2023-12-11T03:05:16.279Z,100.00
2023-12-11T03:05:50.962Z,100.00
2023-12-11T03:06:24.904Z,100.00
2023-12-11T03:07:02.262Z,100.00
2023-12-11T03:07:37.713Z,100.00
2023-12-11T03:08:19.386Z,100.00
2023-12-11T03:08:52.996Z,100.00
2023-12-11T03:09:29.196Z,100.00
2023-12-11T03:10:03.065Z,100.00
2023-12-11T03:10:36.683Z,100.00
2023-12-11T03:11:11.536Z,100.00
2023-12-11T03:11:59.210Z,100.00
2023-12-11T03:12:32.550Z,100.00
2023-12-11T03:13:06.228Z,100.00
2023-12-11T03:13:39.915Z,100.00
2023-12-11T03:14:14.138Z,100.00
2023-12-11T03:14:49.003Z,100.00
2023-12-11T03:15:38.661Z,100.00
2023-12-11T03:16:15.987Z,100.00
2023-12-11T03:16:50.437Z,100.00
2023-12-11T03:17:24.593Z,100.00
2023-12-11T03:17:58.683Z,100.00
2023-12-11T03:18:32.827Z,100.00
2023-12-11T03:19:26.209Z,100.00
2023-12-11T03:20:02.850Z,100.00
2023-12-11T03:20:36.968Z,100.00
2023-12-11T03:21:11.048Z,100.00
2023-12-11T03:21:45.689Z,100.00
2023-12-11T03:22:22.971Z,100.00
2023-12-11T03:23:05.395Z,100.00
2023-12-11T03:23:39.915Z,100.00
2023-12-11T03:24:14.243Z,100.00
2023-12-11T03:24:51.059Z,100.00
2023-12-11T03:25:25.427Z,100.00
2023-12-11T03:25:59.671Z,100.00
2023-12-11T03:26:47.453Z,100.00
2023-12-11T03:27:24.954Z,100.00
2023-12-11T03:27:58.923Z,100.00
2023-12-11T03:28:33.046Z,100.00
2023-12-11T03:29:10.208Z,100.00
2023-12-11T03:29:44.441Z,100.00
2023-12-11T03:30:32.567Z,100.00
2023-12-11T03:31:07.466Z,100.00
2023-12-11T03:31:41.440Z,100.00
2023-12-11T03:32:15.691Z,100.00
2023-12-11T03:32:49.503Z,100.00
2023-12-11T03:33:23.624Z,100.00
2023-12-11T03:34:11.834Z,100.00
2023-12-11T03:34:52.064Z,100.00
2023-12-11T03:35:26.978Z,100.00
2023-12-11T03:36:00.857Z,100.00
2023-12-11T03:36:35.237Z,100.00
2023-12-11T03:37:09.368Z,100.00
2023-12-11T03:37:54.409Z,100.00
2023-12-11T03:38:28.393Z,100.00
2023-12-11T03:39:02.205Z,100.00
2023-12-11T03:39:36.160Z,100.00
2023-12-11T03:40:10.577Z,100.00
2023-12-11T03:40:44.731Z,100.00
2023-12-11T03:41:34.603Z,100.00
2023-12-11T03:42:08.163Z,100.00
2023-12-11T03:42:41.676Z,100.00
2023-12-11T03:43:18.756Z,100.00
2023-12-11T03:43:52.820Z,100.00
2023-12-11T03:44:26.981Z,100.00
2023-12-11T03:45:14.678Z,100.00
2023-12-11T03:45:49.500Z,100.00
2023-12-11T03:46:23.914Z,100.00
2023-12-11T03:47:00.030Z,100.00
2023-12-11T03:47:34.449Z,100.00
2023-12-11T03:48:09.393Z,100.00
2023-12-11T03:48:56.444Z,100.00
2023-12-11T03:49:30.895Z,100.00
2023-12-11T03:50:05.163Z,100.00
2023-12-11T03:50:43.727Z,100.00
2023-12-11T03:51:18.653Z,100.00
2023-12-11T03:51:52.548Z,100.00
2023-12-11T03:52:38.877Z,100.00
2023-12-11T03:53:12.774Z,100.00
2023-12-11T03:53:47.018Z,100.00
2023-12-11T03:54:21.375Z,100.00
2023-12-11T03:54:55.246Z,100.00
2023-12-11T03:55:29.203Z,100.00
2023-12-11T03:56:21.259Z,100.00
2023-12-11T03:56:55.246Z,100.00
2023-12-11T03:57:30.100Z,100.00
2023-12-11T03:58:05.722Z,100.00
2023-12-11T03:58:41.057Z,100.00
2023-12-11T03:59:15.631Z,100.00
2023-12-11T04:00:00.701Z,100.00
2023-12-11T04:00:35.041Z,100.00
2023-12-11T04:01:09.014Z,100.00
2023-12-11T04:01:43.112Z,100.00
2023-12-11T04:02:17.307Z,100.00
2023-12-11T04:02:51.119Z,100.00
2023-12-11T04:03:41.290Z,100.00
2023-12-11T04:04:15.601Z,100.00
2023-12-11T04:04:50.337Z,100.00
2023-12-11T04:05:24.545Z,100.00
2023-12-11T04:05:58.506Z,100.00
2023-12-11T04:06:32.488Z,100.00
2023-12-11T04:07:31.033Z,100.00
2023-12-11T04:08:04.809Z,100.00
2023-12-11T04:08:39.821Z,100.00
2023-12-11T04:09:13.666Z,100.00
2023-12-11T04:09:49.788Z,100.00
2023-12-11T04:11:01.098Z,100.00
2023-12-11T04:11:36.062Z,100.00
2023-12-11T04:12:10.008Z,100.00
2023-12-11T04:12:44.867Z,100.00
2023-12-11T04:13:18.502Z,100.00
2023-12-11T04:13:52.028Z,100.00
2023-12-11T04:14:42.346Z,100.00
2023-12-11T04:15:15.676Z,100.00
2023-12-11T04:15:49.732Z,100.00
2023-12-11T04:16:23.669Z,100.00
2023-12-11T04:16:57.453Z,100.00
2023-12-11T04:17:31.487Z,100.00
2023-12-11T04:18:22.039Z,100.00
2023-12-11T04:18:58.437Z,100.00
2023-12-11T04:19:34.106Z,100.00
2023-12-11T04:20:08.308Z,100.00
2023-12-11T04:20:42.290Z,100.00
2023-12-11T04:21:16.784Z,100.00
2023-12-11T04:22:06.570Z,100.00
2023-12-11T04:22:40.145Z,100.00
2023-12-11T04:23:14.855Z,100.00
2023-12-11T04:23:53.846Z,100.00
2023-12-11T04:24:27.606Z,100.00
2023-12-11T04:25:01.517Z,100.00
2023-12-11T04:25:47.941Z,100.00
2023-12-11T04:26:22.528Z,100.00
2023-12-11T04:26:57.169Z,100.00
2023-12-11T04:27:30.959Z,100.00
2023-12-11T04:28:04.721Z,100.00
2023-12-11T04:28:38.318Z,100.00
2023-12-11T04:29:29.503Z,100.00
2023-12-11T04:30:03.656Z,100.00
2023-12-11T04:30:37.404Z,100.00
2023-12-11T04:31:12.096Z,100.00
2023-12-11T04:31:46.580Z,100.00
2023-12-11T04:32:20.731Z,100.00
2023-12-11T04:33:15.711Z,100.00
2023-12-11T04:33:50.306Z,100.00
2023-12-11T04:34:25.047Z,100.00
2023-12-11T04:34:58.938Z,100.00
2023-12-11T04:35:32.765Z,100.00
2023-12-11T04:36:10.224Z,100.00
2023-12-11T04:36:56.435Z,100.00
2023-12-11T04:37:31.009Z,100.00
2023-12-11T04:38:05.433Z,100.00
2023-12-11T04:38:40.164Z,100.00
2023-12-11T04:39:15.331Z,100.00
2023-12-11T04:39:50.913Z,100.00
2023-12-11T04:40:37.015Z,100.00
2023-12-11T04:41:11.190Z,100.00
2023-12-11T04:41:45.949Z,100.00
2023-12-11T04:42:21.065Z,100.00
2023-12-11T04:42:54.779Z,100.00
2023-12-11T04:43:31.779Z,100.00
2023-12-11T04:44:16.972Z,100.00
2023-12-11T04:44:50.919Z,100.00
2023-12-11T04:45:24.581Z,100.00
2023-12-11T04:45:58.881Z,100.00
2023-12-11T04:46:33.443Z,100.00
2023-12-11T04:47:07.407Z,100.00
2023-12-11T04:47:54.940Z,100.00
2023-12-11T04:48:28.914Z,100.00
2023-12-11T04:49:02.600Z,100.00
2023-12-11T04:49:37.583Z,100.00
2023-12-11T04:50:11.259Z,100.00
2023-12-11T04:50:45.320Z,100.00
2023-12-11T04:51:36.327Z,100.00
2023-12-11T04:52:10.180Z,100.00
2023-12-11T04:52:44.089Z,100.00
2023-12-11T04:53:18.011Z,100.00
2023-12-11T04:53:51.855Z,100.00
2023-12-11T04:54:29.358Z,100.00
2023-12-11T04:55:18.276Z,100.00
2023-12-11T04:55:53.018Z,100.00
2023-12-11T04:56:29.160Z,100.00
2023-12-11T04:57:03.362Z,100.00
2023-12-11T04:57:37.139Z,100.00
2023-12-11T04:58:10.799Z,100.00
2023-12-11T04:58:59.412Z,100.00
2023-12-11T04:59:32.996Z,100.00
2023-12-11T05:00:07.044Z,100.00
2023-12-11T05:00:43.157Z,100.00
2023-12-11T05:01:17.172Z,100.00
2023-12-11T05:01:51.064Z,100.00
2023-12-11T05:02:39.426Z,100.00
2023-12-11T05:03:12.845Z,100.00
2023-12-11T05:03:46.520Z,100.00
2023-12-11T05:04:20.493Z,100.00
2023-12-11T05:04:55.065Z,100.00
2023-12-11T05:05:29.655Z,100.00
2023-12-11T05:06:17.467Z,100.00
2023-12-11T05:06:51.276Z,100.00
2023-12-11T05:07:25.408Z,100.00
2023-12-11T05:08:00.367Z,100.00
2023-12-11T05:08:34.147Z,100.00
2023-12-11T05:09:07.921Z,100.00
2023-12-11T05:09:57.377Z,100.00
2023-12-11T05:10:31.016Z,100.00
2023-12-11T05:11:05.059Z,100.00
2023-12-11T05:11:38.746Z,100.00
2023-12-11T05:12:12.904Z,100.00
2023-12-11T05:12:47.455Z,100.00
2023-12-11T05:13:34.580Z,100.00
2023-12-11T05:14:08.333Z,100.00
2023-12-11T05:14:42.587Z,100.00
2023-12-11T05:15:17.531Z,100.00
2023-12-11T05:15:53.376Z,100.00
2023-12-11T05:16:28.075Z,100.00
2023-12-11T05:17:15.936Z,100.00
2023-12-11T05:17:49.889Z,100.00
2023-12-11T05:18:23.953Z,100.00
2023-12-11T05:18:57.842Z,100.00
2023-12-11T05:19:31.654Z,100.00
2023-12-11T05:20:05.932Z,100.00
2023-12-11T05:21:08.685Z,100.00
2023-12-11T05:21:45.963Z,100.00
2023-12-11T05:22:20.308Z,100.00
2023-12-11T05:22:54.772Z,100.00
2023-12-11T05:23:28.922Z,100.00
2023-12-11T05:24:41.833Z,100.00
2023-12-11T05:25:21.434Z,100.00
2023-12-11T05:25:56.948Z,100.00
2023-12-11T05:26:30.494Z,100.00
2023-12-11T05:27:04.324Z,100.00
2023-12-11T05:27:38.325Z,100.00
2023-12-11T05:28:31.490Z,100.00
2023-12-11T05:29:05.719Z,100.00
2023-12-11T05:29:39.135Z,100.00
2023-12-11T05:30:12.979Z,100.00
2023-12-11T05:30:47.493Z,100.00
2023-12-11T05:31:23.155Z,100.00
2023-12-11T05:32:09.069Z,100.00
2023-12-11T05:32:43.730Z,100.00
2023-12-11T05:33:18.647Z,100.00
2023-12-11T05:33:53.400Z,100.00
2023-12-11T05:34:27.462Z,100.00
2023-12-11T05:35:01.615Z,100.00
2023-12-11T05:35:48.949Z,100.00
2023-12-11T05:36:22.679Z,100.00
2023-12-11T05:36:56.747Z,100.00
2023-12-11T05:37:30.598Z,100.00
2023-12-11T05:38:04.299Z,100.00
2023-12-11T05:38:37.872Z,100.00
2023-12-11T05:39:30.390Z,100.00
2023-12-11T05:40:21.358Z,100.00
2023-12-11T05:40:58.327Z,100.00
2023-12-11T05:41:32.069Z,100.00
2023-12-11T05:42:05.563Z,100.00
2023-12-11T05:42:39.013Z,100.00
2023-12-11T05:43:32.459Z,100.00
2023-12-11T05:44:07.283Z,100.00
2023-12-11T05:44:44.600Z,100.00
2023-12-11T05:45:18.533Z,100.00
2023-12-11T05:45:52.870Z,100.00
2023-12-11T05:46:27.173Z,100.00
2023-12-11T05:47:10.254Z,100.00
2023-12-11T05:47:43.918Z,100.00
2023-12-11T05:48:18.720Z,100.00
2023-12-11T05:48:52.896Z,100.00
2023-12-11T05:49:26.962Z,100.00
2023-12-11T05:50:02.164Z,100.00
2023-12-11T05:51:11.044Z,100.00
2023-12-11T05:51:45.221Z,100.00
2023-12-11T05:52:18.940Z,100.00
2023-12-11T05:52:52.807Z,100.00
2023-12-11T05:53:26.362Z,100.00
2023-12-11T05:54:30.986Z,100.00
2023-12-11T05:55:05.067Z,100.00
2023-12-11T05:55:38.560Z,100.00
2023-12-11T05:56:12.545Z,100.00
2023-12-11T05:56:46.079Z,100.00
2023-12-11T05:57:21.947Z,100.00
2023-12-11T05:58:12.546Z,100.00
2023-12-11T05:58:46.226Z,100.00
2023-12-11T05:59:19.729Z,100.00
2023-12-11T05:59:53.311Z,100.00
2023-12-11T06:00:27.368Z,100.00
2023-12-11T06:01:01.231Z,100.00
2023-12-11T06:01:53.942Z,100.00
2023-12-11T06:02:27.876Z,100.00
2023-12-11T06:03:01.898Z,100.00
2023-12-11T06:03:36.188Z,100.00
2023-12-11T06:04:09.823Z,100.00
2023-12-11T06:04:45.731Z,100.00
2023-12-11T06:05:35.446Z,100.00
2023-12-11T06:06:15.515Z,100.00
2023-12-11T06:06:49.093Z,100.00
2023-12-11T06:07:23.586Z,100.00
2023-12-11T06:07:58.004Z,100.00
2023-12-11T06:08:32.003Z,100.00
2023-12-11T06:09:23.556Z,100.00
2023-12-11T06:09:57.587Z,100.00
2023-12-11T06:10:31.418Z,100.00
2023-12-11T06:11:04.940Z,100.00
2023-12-11T06:11:38.370Z,100.00
2023-12-11T06:12:12.121Z,100.00
2023-12-11T06:13:01.369Z,100.00
2023-12-11T06:13:34.901Z,100.00
2023-12-11T06:14:08.875Z,100.00
2023-12-11T06:14:46.272Z,100.00
2023-12-11T06:15:22.238Z,100.00
2023-12-11T06:15:56.736Z,100.00
2023-12-11T06:16:43.811Z,100.00
2023-12-11T06:17:17.905Z,100.00
2023-12-11T06:17:51.641Z,100.00
2023-12-11T06:18:25.267Z,100.00
2023-12-11T06:19:01.228Z,100.00
2023-12-11T06:19:34.995Z,100.00
2023-12-11T06:20:25.915Z,100.00
2023-12-11T06:21:03.035Z,100.00
2023-12-11T06:21:38.010Z,100.00
2023-12-11T06:22:12.511Z,100.00
2023-12-11T06:22:49.376Z,100.00
2023-12-11T06:23:26.417Z,100.00
2023-12-11T06:24:12.094Z,100.00
2023-12-11T06:24:45.810Z,100.00
2023-12-11T06:25:19.600Z,100.00
2023-12-11T06:25:53.851Z,100.00
2023-12-11T06:26:29.712Z,100.00
2023-12-11T06:27:03.068Z,100.00
2023-12-11T06:27:52.854Z,100.00
2023-12-11T06:28:29.134Z,100.00
2023-12-11T06:29:03.181Z,100.00
2023-12-11T06:29:37.400Z,100.00
2023-12-11T06:30:11.200Z,100.00
2023-12-11T06:30:45.548Z,100.00
2023-12-11T06:31:29.982Z,100.00
2023-12-11T06:32:04.293Z,100.00
2023-12-11T06:32:38.551Z,100.00
2023-12-11T06:33:12.565Z,100.00
2023-12-11T06:33:46.269Z,100.00
2023-12-11T06:34:20.530Z,100.00
2023-12-11T06:35:08.252Z,100.00
2023-12-11T06:35:44.806Z,100.00
2023-12-11T06:36:18.910Z,100.00
2023-12-11T06:36:52.989Z,100.00
2023-12-11T06:37:28.504Z,100.00
2023-12-11T06:38:02.903Z,100.00
2023-12-11T06:38:53.151Z,100.00
2023-12-11T06:39:28.880Z,100.00
2023-12-11T06:40:05.013Z,100.00
2023-12-11T06:40:38.600Z,100.00
2023-12-11T06:41:12.784Z,100.00
2023-12-11T06:41:46.268Z,100.00
2023-12-11T06:42:34.161Z,100.00
2023-12-11T06:43:09.098Z,100.00
2023-12-11T06:43:43.244Z,100.00
2023-12-11T06:44:17.425Z,100.00
2023-12-11T06:44:52.547Z,100.00
2023-12-11T06:45:26.476Z,100.00
2023-12-11T06:46:10.207Z,100.00
2023-12-11T06:46:46.520Z,100.00
2023-12-11T06:47:20.275Z,100.00
2023-12-11T06:47:54.106Z,100.00
2023-12-11T06:48:28.167Z,100.00
2023-12-11T06:49:02.100Z,100.00
2023-12-11T06:49:49.944Z,100.00
2023-12-11T06:50:23.772Z,100.00
2023-12-11T06:50:58.304Z,100.00
2023-12-11T06:51:36.509Z,100.00
2023-12-11T06:52:10.429Z,100.00
2023-12-11T06:52:44.138Z,100.00
2023-12-11T06:53:31.600Z,100.00
2023-12-11T06:54:05.295Z,100.00
2023-12-11T06:54:39.138Z,100.00
2023-12-11T06:55:13.356Z,100.00
2023-12-11T06:55:47.452Z,100.00
2023-12-11T06:56:21.301Z,100.00
2023-12-11T06:57:12.990Z,100.00
2023-12-11T06:57:53.121Z,100.00
2023-12-11T06:58:30.141Z,100.00
2023-12-11T06:59:05.631Z,100.00
2023-12-11T06:59:39.576Z,100.00
2023-12-11T07:00:52.522Z,100.00
2023-12-11T07:01:32.863Z,100.00
2023-12-11T07:02:07.517Z,100.00
2023-12-11T07:02:41.610Z,100.00
2023-12-11T07:03:15.425Z,100.00
2023-12-11T07:04:29.362Z,100.00
2023-12-11T07:05:03.246Z,100.00
2023-12-11T07:05:37.865Z,100.00
2023-12-11T07:06:11.883Z,100.00
2023-12-11T07:06:46.284Z,100.00
2023-12-11T07:07:20.063Z,100.00
2023-12-11T07:08:11.164Z,100.00
2023-12-11T07:08:44.837Z,100.00
2023-12-11T07:09:18.743Z,100.00
2023-12-11T07:09:53.370Z,100.00
2023-12-11T07:10:27.762Z,100.00
2023-12-11T07:11:01.283Z,100.00
2023-12-11T07:11:53.574Z,100.00
2023-12-11T07:12:31.469Z,100.00
2023-12-11T07:13:05.667Z,100.00
2023-12-11T07:13:42.645Z,100.00
2023-12-11T07:14:16.674Z,100.00
2023-12-11T07:15:31.492Z,100.00
2023-12-11T07:16:05.782Z,100.00
2023-12-11T07:16:40.121Z,100.00
2023-12-11T07:17:14.771Z,100.00
2023-12-11T07:17:49.767Z,100.00
2023-12-11T07:18:23.607Z,100.00
2023-12-11T07:19:11.303Z,100.00
2023-12-11T07:19:45.399Z,100.00
2023-12-11T07:20:19.759Z,100.00
2023-12-11T07:20:54.070Z,100.00
2023-12-11T07:21:28.140Z,100.00
2023-12-11T07:22:02.214Z,100.00
2023-12-11T07:22:48.941Z,100.00
2023-12-11T07:23:23.468Z,100.00
2023-12-11T07:24:00.242Z,100.00
2023-12-11T07:24:35.507Z,100.00
2023-12-11T07:25:09.617Z,100.00
2023-12-11T07:25:43.600Z,100.00
2023-12-11T07:26:31.901Z,100.00
2023-12-11T07:27:06.082Z,100.00
2023-12-11T07:27:43.016Z,100.00
2023-12-11T07:28:16.779Z,100.00
2023-12-11T07:28:50.496Z,100.00
2023-12-11T07:29:24.043Z,100.00
2023-12-11T07:30:13.430Z,100.00
2023-12-11T07:30:47.868Z,100.00
2023-12-11T07:31:22.225Z,100.00
2023-12-11T07:31:56.839Z,100.00
2023-12-11T07:32:31.639Z,100.00
2023-12-11T07:33:05.813Z,100.00
2023-12-11T07:33:58.206Z,100.00
2023-12-11T07:34:33.373Z,100.00
2023-12-11T07:35:09.913Z,100.00
2023-12-11T07:35:43.865Z,100.00
2023-12-11T07:36:19.377Z,100.00
2023-12-11T07:37:31.893Z,100.00
2023-12-11T07:38:05.782Z,100.00
2023-12-11T07:38:39.633Z,100.00
2023-12-11T07:39:13.767Z,100.00
2023-12-11T07:39:48.000Z,100.00
2023-12-11T07:40:23.020Z,100.00
2023-12-11T07:41:09.380Z,100.00
2023-12-11T07:41:43.080Z,100.00
2023-12-11T07:42:17.223Z,100.00
2023-12-11T07:42:51.662Z,100.00
2023-12-11T07:43:29.775Z,100.00
2023-12-11T07:44:04.747Z,100.00
2023-12-11T07:44:50.576Z,100.00
2023-12-11T07:45:24.538Z,100.00
2023-12-11T07:45:58.553Z,100.00
2023-12-11T07:46:32.286Z,100.00
2023-12-11T07:47:05.954Z,100.00
2023-12-11T07:47:40.112Z,100.00
2023-12-11T07:48:32.846Z,100.00
2023-12-11T07:49:08.924Z,100.00
2023-12-11T07:49:42.786Z,100.00
2023-12-11T07:50:18.324Z,100.00
2023-12-11T07:50:52.248Z,100.00
2023-12-11T07:51:25.779Z,100.00
2023-12-11T07:52:14.263Z,100.00
2023-12-11T07:52:47.924Z,100.00
2023-12-11T07:53:21.843Z,100.00
2023-12-11T07:54:00.490Z,100.00